Main page
METAR-TAF:

METAR-TAF

Airports :

John H. Batten Airport

Racine, Wisconsin, United States

latitude: 42-45-31N, longitude: 087-49-04W, elevation: 672 ft

Current weather observation

The report was made 27 minutes ago, at 18:53 UTC
Wind 14 mph from the North with gusts up to 26 mph
Temperature 43°F
Humidity 56%
Pressure 30.33 in. Hg
Visibility: 10 miles
Clear sky

METAR: KRAC 241853Z AUTO 01012G23KT 10SM CLR 06/M02 A3033 RMK AO2 SLP275 T00561017

Time: 14:20 (19:20 UTC)


TAF: missing

Weather observations and forecasts of more than 4000 airports (METAR and TAF reports).

The available stations are represented by yellow and red dots on the map.

Hover mouse over dot to see the name of the station.

Then click to see weather observations and forecasts.

To change the map : click on the green buttons with a black cross to zoom in, on the green button with a dash to zoom out, or on the green arrows for adjacent maps.


METAR-TAF: